createdAt,value
2019-05-07T00:00:43.566Z,80.64
2019-05-07T00:03:12.419Z,81.40
2019-05-07T00:05:42.944Z,82.64
2019-05-07T00:08:12.971Z,82.23
2019-05-07T00:10:42.948Z,81.69
2019-05-07T00:13:13.031Z,81.07
2019-05-07T00:15:44.067Z,81.84
2019-05-07T00:18:14.106Z,83.03
2019-05-07T00:20:44.161Z,82.09
2019-05-07T00:23:14.173Z,82.68
2019-05-07T00:25:44.152Z,82.09
2019-05-07T00:28:14.267Z,82.72
2019-05-07T00:30:44.322Z,81.59
2019-05-07T00:33:14.354Z,81.94
2019-05-07T00:36:02.669Z,81.08
2019-05-07T00:38:44.143Z,81.23
2019-05-07T00:41:24.986Z,81.63
2019-05-07T00:43:56.614Z,81.88
2019-05-07T00:46:27.764Z,82.12
2019-05-07T00:48:57.731Z,82.48
2019-05-07T00:51:29.429Z,82.70
2019-05-07T00:54:02.691Z,81.08
2019-05-07T00:56:33.246Z,82.20
2019-05-07T00:59:03.490Z,81.75
2019-05-07T01:01:34.146Z,82.13
2019-05-07T01:04:04.659Z,81.77
2019-05-07T01:06:34.636Z,81.88
2019-05-07T01:09:06.515Z,81.19
2019-05-07T01:11:36.475Z,80.89
2019-05-07T01:14:06.476Z,82.40
2019-05-07T01:16:36.647Z,82.12
2019-05-07T01:19:06.618Z,82.61
2019-05-07T01:21:36.736Z,82.10
2019-05-07T01:24:06.714Z,81.12
2019-05-07T01:26:36.711Z,80.91
2019-05-07T01:29:06.702Z,81.83
2019-05-07T01:31:38.383Z,81.80
2019-05-07T01:34:19.297Z,82.03
2019-05-07T01:36:49.331Z,80.87
2019-05-07T01:39:19.294Z,81.59
2019-05-07T01:41:49.278Z,81.82
2019-05-07T01:44:19.247Z,81.39
2019-05-07T01:46:50.206Z,81.96
2019-05-07T01:49:20.184Z,81.49
2019-05-07T01:51:50.224Z,81.60
2019-05-07T01:54:23.523Z,82.73
2019-05-07T01:56:52.249Z,82.62
2019-05-07T01:59:23.427Z,82.66
2019-05-07T02:01:55.173Z,81.74
2019-05-07T02:04:35.526Z,80.73
2019-05-07T02:07:15.862Z,82.46
2019-05-07T02:09:53.541Z,83.18
2019-05-07T02:12:27.959Z,82.05
2019-05-07T02:14:58.053Z,81.54
2019-05-07T02:17:28.107Z,81.30
2019-05-07T02:19:58.212Z,82.93
2019-05-07T02:22:42.789Z,82.11
2019-05-07T02:25:22.256Z,81.29
2019-05-07T02:27:52.938Z,81.50
2019-05-07T02:30:24.282Z,82.10
2019-05-07T02:32:54.463Z,82.42
2019-05-07T02:35:24.521Z,81.47
2019-05-07T02:37:57.011Z,81.51
2019-05-07T02:40:28.837Z,80.96
2019-05-07T02:42:58.828Z,81.92
2019-05-07T02:45:39.475Z,83.13
2019-05-07T02:48:12.779Z,82.47
2019-05-07T02:50:45.684Z,82.29
2019-05-07T02:53:18.195Z,82.67
2019-05-07T02:55:52.896Z,82.87
2019-05-07T02:58:24.003Z,82.82
2019-05-07T03:00:54.547Z,82.62
2019-05-07T03:03:24.989Z,82.47
2019-05-07T03:05:55.072Z,82.40
2019-05-07T03:08:27.559Z,81.94
2019-05-07T03:10:57.057Z,81.97
2019-05-07T03:13:27.040Z,82.52
2019-05-07T03:15:57.200Z,82.08
2019-05-07T03:18:27.458Z,82.84
2019-05-07T03:20:59.212Z,82.75
2019-05-07T03:23:33.743Z,82.10
2019-05-07T03:26:09.723Z,81.88
2019-05-07T03:28:42.740Z,81.58
2019-05-07T03:31:16.767Z,81.26
2019-05-07T03:33:48.043Z,82.24
2019-05-07T03:36:19.793Z,82.27
2019-05-07T03:38:49.768Z,82.28
2019-05-07T03:41:22.697Z,82.53
2019-05-07T03:43:52.895Z,82.05
2019-05-07T03:46:23.687Z,81.59
2019-05-07T03:48:53.743Z,82.40
2019-05-07T03:51:23.958Z,82.37
2019-05-07T03:53:55.193Z,82.45
2019-05-07T03:56:25.174Z,83.74
2019-05-07T03:58:55.203Z,83.14
2019-05-07T04:01:25.186Z,82.91
2019-05-07T04:03:55.202Z,82.83
2019-05-07T04:06:25.172Z,82.84
2019-05-07T04:08:55.204Z,82.16
2019-05-07T04:11:25.193Z,83.04
2019-05-07T04:13:55.193Z,83.26
2019-05-07T04:16:25.211Z,83.07
2019-05-07T04:18:55.175Z,82.50
2019-05-07T04:21:25.155Z,83.03
2019-05-07T04:23:56.787Z,83.29
2019-05-07T04:26:33.960Z,82.97
2019-05-07T04:29:07.270Z,83.13
2019-05-07T04:31:38.954Z,82.73
2019-05-07T04:34:13.172Z,82.45
2019-05-07T04:36:44.059Z,82.70
2019-05-07T04:39:14.122Z,83.01
2019-05-07T04:41:44.106Z,82.42
2019-05-07T04:44:14.498Z,82.80
2019-05-07T04:46:47.937Z,81.93
2019-05-07T04:49:16.301Z,82.95
2019-05-07T04:51:53.027Z,82.75
2019-05-07T04:54:23.828Z,82.38
2019-05-07T04:56:53.942Z,82.46
2019-05-07T04:59:25.075Z,81.21
2019-05-07T05:01:56.756Z,82.01
2019-05-07T05:04:34.026Z,82.06
2019-05-07T05:06:58.409Z,82.09
2019-05-07T05:09:28.376Z,81.59
2019-05-07T05:11:58.513Z,81.51
2019-05-07T05:14:28.477Z,80.97
2019-05-07T05:17:01.946Z,80.97
2019-05-07T05:19:32.295Z,81.46
2019-05-07T05:22:04.308Z,81.45
2019-05-07T05:24:35.938Z,81.49
2019-05-07T05:27:05.992Z,81.98
2019-05-07T05:29:38.386Z,81.27
2019-05-07T05:32:08.455Z,81.59
2019-05-07T05:34:38.426Z,81.20
2019-05-07T05:37:08.401Z,81.73
2019-05-07T05:39:38.444Z,80.59
2019-05-07T05:42:13.024Z,80.07
2019-05-07T05:44:43.016Z,80.33
2019-05-07T05:47:13.617Z,79.44
2019-05-07T05:49:45.250Z,80.27
2019-05-07T05:52:22.056Z,81.61
2019-05-07T05:54:54.380Z,80.29
2019-05-07T05:57:32.251Z,79.12
2019-05-07T06:00:22.027Z,79.95
2019-05-07T06:02:53.323Z,80.73
2019-05-07T06:05:41.533Z,79.17
2019-05-07T06:08:18.888Z,79.48
2019-05-07T06:10:56.000Z,79.79
2019-05-07T06:13:27.647Z,80.65
2019-05-07T06:16:14.365Z,78.41
2019-05-07T06:18:46.033Z,79.10
2019-05-07T06:21:26.548Z,78.53
2019-05-07T06:24:02.265Z,79.02
2019-05-07T06:26:32.320Z,79.42
2019-05-07T06:29:02.523Z,78.43
2019-05-07T06:31:32.812Z,78.94
2019-05-07T06:34:02.860Z,78.13
2019-05-07T06:36:34.557Z,78.87
2019-05-07T06:39:12.568Z,77.43
2019-05-07T06:42:02.059Z,77.99
2019-05-07T06:44:33.522Z,77.58
2019-05-07T06:47:03.547Z,76.79
2019-05-07T06:49:33.569Z,76.44
2019-05-07T06:52:03.550Z,75.10
2019-05-07T06:54:33.533Z,76.82
2019-05-07T06:57:03.704Z,75.46
2019-05-07T06:59:35.397Z,76.22
2019-05-07T07:02:22.649Z,75.96
2019-05-07T07:05:02.825Z,76.98
2019-05-07T07:07:37.313Z,76.32
2019-05-07T07:10:12.060Z,74.64
2019-05-07T07:12:42.615Z,73.40
2019-05-07T07:15:13.722Z,74.84
2019-05-07T07:17:43.843Z,75.29
2019-05-07T07:20:14.267Z,75.42
2019-05-07T07:22:44.304Z,76.14
2019-05-07T07:25:14.285Z,74.53
2019-05-07T07:27:44.337Z,74.81
2019-05-07T07:30:28.170Z,73.65
2019-05-07T07:32:59.853Z,71.89
2019-05-07T07:35:32.034Z,72.37
2019-05-07T07:38:03.330Z,73.29
2019-05-07T07:40:42.237Z,72.69
2019-05-07T07:43:12.893Z,72.12
2019-05-07T07:45:43.050Z,71.59
2019-05-07T07:48:13.318Z,71.23
2019-05-07T07:50:43.535Z,71.99
2019-05-07T07:53:13.519Z,69.16
2019-05-07T07:55:45.199Z,70.65
2019-05-07T07:58:23.000Z,69.73
2019-05-07T08:00:54.740Z,71.16
2019-05-07T08:03:24.777Z,69.31
2019-05-07T08:05:55.852Z,71.22
2019-05-07T08:08:26.038Z,71.08
2019-05-07T08:10:56.025Z,68.77
2019-05-07T08:13:27.412Z,68.68
2019-05-07T08:15:57.594Z,68.96
2019-05-07T08:18:27.668Z,69.82
2019-05-07T08:20:57.675Z,69.34
2019-05-07T08:23:27.727Z,69.20
2019-05-07T08:25:57.773Z,68.22
2019-05-07T08:28:27.901Z,69.55
2019-05-07T08:31:02.990Z,68.67
2019-05-07T08:33:35.914Z,69.65
2019-05-07T08:36:16.644Z,68.68
2019-05-07T08:38:53.542Z,67.77
2019-05-07T08:41:25.511Z,67.44
2019-05-07T08:44:11.575Z,66.83
2019-05-07T08:46:42.080Z,65.50
2019-05-07T08:49:13.519Z,67.06
2019-05-07T08:54:40.075Z,66.51
2019-05-07T08:57:11.740Z,65.18
2019-05-07T08:59:46.776Z,63.38
2019-05-07T09:02:13.638Z,63.66
2019-05-07T09:04:43.606Z,64.63
2019-05-07T09:07:13.616Z,64.17
2019-05-07T09:09:43.932Z,64.39
2019-05-07T09:12:13.975Z,63.37
2019-05-07T09:14:43.935Z,62.01
2019-05-07T09:17:13.993Z,65.30
2019-05-07T09:19:50.755Z,65.17
2019-05-07T09:22:15.685Z,60.27
2019-05-07T09:24:45.677Z,60.19
2019-05-07T09:27:17.519Z,60.19
2019-05-07T09:29:49.206Z,59.30
2019-05-07T09:32:24.045Z,58.78
2019-05-07T09:34:58.831Z,57.51
2019-05-07T09:37:32.431Z,58.37
2019-05-07T09:40:02.796Z,56.72
2019-05-07T09:42:33.511Z,56.52
2019-05-07T09:45:07.207Z,55.41
2019-05-07T09:47:37.168Z,54.85
2019-05-07T09:50:08.823Z,55.72
2019-05-07T09:52:38.991Z,56.08
2019-05-07T09:55:16.375Z,57.56
2019-05-07T09:57:42.412Z,56.68
2019-05-07T10:00:14.297Z,56.85
2019-05-07T10:02:44.431Z,55.20
2019-05-07T10:05:14.760Z,55.97
2019-05-07T10:07:44.837Z,56.33
2019-05-07T10:10:15.316Z,54.60
2019-05-07T10:12:47.170Z,54.47
2019-05-07T10:15:17.285Z,54.23
2019-05-07T10:17:54.486Z,54.45
2019-05-07T10:20:25.306Z,53.63
2019-05-07T10:22:55.614Z,54.60
2019-05-07T10:25:27.266Z,54.80
2019-05-07T10:27:57.612Z,52.93
2019-05-07T10:30:27.586Z,52.52
2019-05-07T10:32:57.645Z,52.95
2019-05-07T10:35:30.794Z,52.33
2019-05-07T10:38:02.004Z,52.96
2019-05-07T10:40:32.702Z,52.62
2019-05-07T10:43:03.045Z,54.94
2019-05-07T10:45:43.808Z,54.29
2019-05-07T10:48:15.560Z,51.29
2019-05-07T10:50:51.705Z,51.53
2019-05-07T10:53:22.981Z,50.76
2019-05-07T10:55:54.165Z,50.76
2019-05-07T10:58:24.221Z,51.07
2019-05-07T11:00:55.441Z,52.71
2019-05-07T11:03:25.576Z,54.41
2019-05-07T11:05:55.645Z,52.63
2019-05-07T11:08:26.004Z,52.05
2019-05-07T11:10:56.117Z,50.84
2019-05-07T11:13:26.092Z,48.12
2019-05-07T11:15:57.866Z,52.12
2019-05-07T11:18:29.572Z,46.77
2019-05-07T11:21:02.682Z,48.98
2019-05-07T11:23:35.081Z,46.44
2019-05-07T11:26:05.322Z,45.97
2019-05-07T11:28:35.414Z,44.24
2019-05-07T11:31:05.515Z,49.43
2019-05-07T11:33:35.598Z,44.23
2019-05-07T11:36:05.924Z,41.42
2019-05-07T11:38:35.901Z,43.28
2019-05-07T11:41:05.897Z,43.87
2019-05-07T11:43:55.636Z,46.26
2019-05-07T11:46:30.138Z,42.12
2019-05-07T11:49:04.427Z,41.34
2019-05-07T11:51:36.128Z,44.14
2019-05-07T11:54:12.322Z,41.65
2019-05-07T11:56:42.484Z,41.08
2019-05-07T11:59:13.521Z,38.88
2019-05-07T12:01:47.973Z,41.97
2019-05-07T12:04:18.142Z,39.25
2019-05-07T12:06:52.068Z,38.56
2019-05-07T12:09:22.228Z,39.81
2019-05-07T12:11:52.205Z,36.60
2019-05-07T12:14:30.948Z,39.97
2019-05-07T12:16:53.904Z,37.79
2019-05-07T12:19:25.102Z,39.37
2019-05-07T12:21:55.088Z,36.63
2019-05-07T12:24:25.099Z,37.15
2019-05-07T12:26:55.254Z,37.37
2019-05-07T12:29:25.255Z,36.81
2019-05-07T12:31:56.926Z,35.17
2019-05-07T12:34:28.630Z,38.66
2019-05-07T12:36:58.738Z,41.71
2019-05-07T12:39:28.736Z,37.53
2019-05-07T12:41:58.784Z,38.49
2019-05-07T12:44:28.836Z,36.64
2019-05-07T12:46:58.956Z,37.06
2019-05-07T12:49:28.989Z,37.01
2019-05-07T12:52:03.368Z,35.90
2019-05-07T12:54:47.029Z,37.79
2019-05-07T12:57:17.083Z,35.10
2019-05-07T12:59:49.533Z,35.21
2019-05-07T13:02:37.174Z,35.32
2019-05-07T13:04:57.885Z,36.30
2019-05-07T13:07:28.205Z,37.82
2019-05-07T13:09:58.191Z,37.45
2019-05-07T13:12:28.224Z,36.98
2019-05-07T13:14:58.198Z,35.83
2019-05-07T13:17:28.214Z,36.15
2019-05-07T13:19:58.199Z,37.19
2019-05-07T13:22:28.263Z,36.48
2019-05-07T13:24:58.242Z,37.29
2019-05-07T13:27:28.296Z,36.79
2019-05-07T13:30:02.386Z,35.45
2019-05-07T13:32:33.063Z,35.72
2019-05-07T13:35:03.187Z,36.27
2019-05-07T13:37:41.818Z,36.17
2019-05-07T13:40:25.932Z,36.21
2019-05-07T13:43:02.774Z,37.41
2019-05-07T13:45:34.244Z,37.48
2019-05-07T13:48:08.787Z,36.43
2019-05-07T13:51:01.672Z,37.02
2019-05-07T13:53:32.239Z,36.69
2019-05-07T13:56:02.555Z,37.23
2019-05-07T13:58:33.049Z,37.42
2019-05-07T14:01:05.018Z,38.58
2019-05-07T14:03:35.050Z,37.73
2019-05-07T14:06:05.170Z,38.04
2019-05-07T14:08:37.057Z,38.03
2019-05-07T14:11:07.184Z,37.16
2019-05-07T14:13:38.158Z,37.22
2019-05-07T14:16:09.241Z,36.71
2019-05-07T14:18:39.833Z,35.77
2019-05-07T14:21:10.016Z,35.73
2019-05-07T14:23:40.009Z,35.42
2019-05-07T14:26:10.112Z,35.87
2019-05-07T14:28:42.161Z,37.86
2019-05-07T14:31:12.276Z,36.02
2019-05-07T14:33:44.159Z,36.95
2019-05-07T14:36:22.389Z,36.74
2019-05-07T14:38:53.564Z,36.26
2019-05-07T14:41:25.707Z,36.34
2019-05-07T14:44:02.953Z,37.93
2019-05-07T14:46:44.561Z,36.04
2019-05-07T14:49:05.166Z,36.34
2019-05-07T15:51:38.159Z,39.00
2019-05-07T15:54:08.146Z,38.43
2019-05-07T15:56:38.133Z,39.18
2019-05-07T15:59:09.757Z,39.41
2019-05-07T16:01:41.808Z,38.92
2019-05-07T16:04:21.748Z,37.07
2019-05-07T16:06:43.186Z,36.84
2019-05-07T16:09:13.245Z,36.71
2019-05-07T16:11:43.349Z,36.77
2019-05-07T16:14:17.994Z,36.66
2019-05-07T16:16:48.256Z,36.47
2019-05-07T16:19:19.876Z,37.75
2019-05-07T16:21:49.930Z,36.69
2019-05-07T16:24:22.430Z,36.93
2019-05-07T16:26:52.307Z,36.92
2019-05-07T16:29:22.649Z,38.54
2019-05-07T16:31:52.653Z,37.75
2019-05-07T16:34:24.687Z,37.81
2019-05-07T16:36:54.409Z,38.95
2019-05-07T16:39:24.391Z,39.42
2019-05-07T16:41:54.399Z,40.25
2019-05-07T16:44:24.384Z,40.70
2019-05-07T16:46:54.381Z,39.52
2019-05-07T16:49:24.523Z,45.09
2019-05-07T16:51:54.561Z,43.97
2019-05-07T16:54:24.557Z,46.89
2019-05-07T16:57:03.110Z,46.46
2019-05-07T16:59:34.317Z,45.22
2019-05-07T17:02:06.026Z,43.40
2019-05-07T17:04:36.025Z,42.87
2019-05-07T17:07:07.728Z,40.96
2019-05-07T17:09:37.852Z,41.47
2019-05-07T17:12:09.517Z,40.52
2019-05-07T17:14:39.481Z,41.32
2019-05-07T17:17:11.965Z,41.78
2019-05-07T17:19:42.544Z,42.25
2019-05-07T17:22:12.614Z,43.60
2019-05-07T17:24:42.630Z,43.24
2019-05-07T17:27:12.616Z,44.20
2019-05-07T17:29:43.006Z,43.10
2019-05-07T17:32:13.392Z,43.06
2019-05-07T17:34:43.370Z,43.29
2019-05-07T17:37:13.493Z,44.61
2019-05-07T17:39:43.478Z,46.23
2019-05-07T17:42:13.450Z,46.03
2019-05-07T17:44:43.456Z,48.19
2019-05-07T17:47:13.439Z,48.07
2019-05-07T17:49:43.478Z,48.33
2019-05-07T17:52:13.451Z,48.83
2019-05-07T17:54:43.436Z,49.37
2019-05-07T17:57:15.890Z,49.67
2019-05-07T17:59:45.342Z,50.21
2019-05-07T18:02:33.285Z,50.37
2019-05-07T18:05:03.772Z,51.12
2019-05-07T18:07:36.837Z,51.08
2019-05-07T18:10:07.257Z,51.25
2019-05-07T18:12:37.625Z,51.67
2019-05-07T18:15:07.941Z,52.90
2019-05-07T18:17:45.587Z,52.99
2019-05-07T18:20:15.807Z,53.20
2019-05-07T18:22:45.813Z,53.55
2019-05-07T18:25:15.793Z,54.22
2019-05-07T18:27:45.949Z,54.96
2019-05-07T18:30:16.349Z,55.35
2019-05-07T18:32:48.012Z,55.42
2019-05-07T18:35:18.000Z,55.23
2019-05-07T18:37:52.512Z,54.38
2019-05-07T18:40:23.210Z,52.21
2019-05-07T18:42:53.318Z,52.42
2019-05-07T18:45:23.323Z,53.64
2019-05-07T18:47:53.306Z,53.83
2019-05-07T18:50:23.323Z,54.02
2019-05-07T18:52:53.570Z,54.34
2019-05-07T18:55:23.586Z,54.71
2019-05-07T18:57:53.558Z,54.83
2019-05-07T19:00:31.758Z,55.24
2019-05-07T19:03:03.396Z,55.87
2019-05-07T19:05:33.760Z,55.78
2019-05-07T19:08:08.020Z,55.63
2019-05-07T19:10:35.844Z,56.05
2019-05-07T19:13:06.064Z,57.60
2019-05-07T19:15:36.099Z,58.32
2019-05-07T19:18:06.126Z,57.80
2019-05-07T19:20:36.115Z,58.77
2019-05-07T19:23:06.204Z,58.57
2019-05-07T19:25:36.188Z,58.86
2019-05-07T19:28:06.545Z,59.08
2019-05-07T19:30:36.521Z,59.85
2019-05-07T19:33:06.577Z,60.35
2019-05-07T19:35:36.619Z,61.02
2019-05-07T19:38:06.592Z,60.69
2019-05-07T19:40:36.607Z,60.09
2019-05-07T19:43:06.838Z,60.12
2019-05-07T19:45:36.989Z,61.21
2019-05-07T19:48:07.124Z,60.25
2019-05-07T19:50:37.253Z,60.83
2019-05-07T19:53:07.340Z,60.81
2019-05-07T19:55:55.223Z,61.96
2019-05-07T19:58:25.209Z,61.60
2019-05-07T20:00:57.321Z,61.14
2019-05-07T20:03:27.012Z,61.52
2019-05-07T20:05:57.128Z,62.42
2019-05-07T20:08:27.176Z,63.20
2019-05-07T20:11:04.540Z,63.96
2019-05-07T20:13:34.610Z,63.15
2019-05-07T20:16:20.371Z,62.77
2019-05-07T20:18:52.397Z,62.86
2019-05-07T20:21:22.948Z,62.29
2019-05-07T20:23:53.203Z,62.89
2019-05-07T20:26:23.375Z,62.02
2019-05-07T20:28:53.473Z,63.07
2019-05-07T20:31:23.449Z,63.33
2019-05-07T20:33:53.655Z,63.51
2019-05-07T20:36:23.633Z,62.64
2019-05-07T20:38:53.619Z,64.10
2019-05-07T20:41:23.636Z,64.89
2019-05-07T20:43:54.482Z,65.05
2019-05-07T20:46:24.489Z,64.73
2019-05-07T20:48:54.460Z,63.66
2019-05-07T20:51:24.481Z,63.98
2019-05-07T20:53:58.870Z,63.51
2019-05-07T20:56:48.629Z,65.02
2019-05-07T20:59:18.688Z,64.61
2019-05-07T21:01:48.691Z,64.67
2019-05-07T21:04:18.675Z,64.57
2019-05-07T21:06:48.727Z,65.23
2019-05-07T21:09:18.846Z,64.59
2019-05-07T21:11:48.920Z,63.97
2019-05-07T21:14:18.942Z,65.50
2019-05-07T21:16:49.055Z,65.19
2019-05-07T21:19:19.038Z,65.46
2019-05-07T21:30:52.219Z,66.29
2019-05-07T21:33:26.286Z,65.87
2019-05-07T21:35:56.316Z,66.22
2019-05-07T21:38:27.288Z,65.93
2019-05-07T21:40:57.266Z,66.12
2019-05-07T21:43:27.291Z,67.49
2019-05-07T21:45:57.293Z,66.82
2019-05-07T21:48:28.340Z,66.37
2019-05-07T21:50:58.379Z,66.42
2019-05-07T21:53:35.476Z,67.60
2019-05-07T21:56:12.210Z,67.63
2019-05-07T21:58:42.983Z,68.24
2019-05-07T22:01:23.911Z,67.74
2019-05-07T22:03:55.205Z,67.56
2019-05-07T22:06:25.270Z,68.22
2019-05-07T22:08:55.338Z,68.60
2019-05-07T22:11:26.435Z,68.52
2019-05-07T22:17:30.467Z,67.23
2019-05-07T22:20:02.997Z,68.38
2019-05-07T22:22:32.903Z,67.97
2019-05-07T22:25:05.320Z,67.50
2019-05-07T22:27:36.515Z,67.93
2019-05-07T22:30:12.528Z,68.57
2019-05-07T22:32:47.424Z,67.83
2019-05-07T22:35:22.644Z,69.00
2019-05-07T22:37:59.837Z,68.27
2019-05-07T22:40:32.109Z,69.15
2019-05-07T22:43:04.022Z,68.09
2019-05-07T22:45:34.131Z,69.00
2019-05-07T22:48:04.194Z,68.05
2019-05-07T22:50:34.220Z,68.76
2019-05-07T22:53:04.278Z,68.90
2019-05-07T22:55:34.319Z,69.49
2019-05-07T22:58:08.651Z,69.19
2019-05-07T23:00:42.546Z,69.58
2019-05-07T23:03:12.770Z,70.01
2019-05-07T23:05:44.958Z,69.77
2019-05-07T23:08:14.530Z,68.61
2019-05-07T23:10:44.745Z,69.75
2019-05-07T23:13:14.697Z,69.85
2019-05-07T23:15:45.879Z,69.38
2019-05-07T23:18:15.872Z,69.89
2019-05-07T23:20:45.934Z,69.22
2019-05-07T23:23:15.918Z,69.32
2019-05-07T23:25:45.984Z,69.13
2019-05-07T23:28:15.948Z,69.71
2019-05-07T23:30:46.108Z,70.18
2019-05-07T23:33:16.233Z,70.56
2019-05-07T23:35:46.207Z,70.20
2019-05-07T23:38:16.214Z,71.08
2019-05-07T23:40:47.900Z,71.08
2019-05-07T23:43:19.516Z,70.35
2019-05-07T23:45:49.525Z,70.35
2019-05-07T23:48:19.518Z,71.00
2019-05-07T23:50:49.552Z,71.07
2019-05-07T23:53:19.551Z,70.70
2019-05-07T23:55:51.867Z,70.63
2019-05-07T23:58:22.999Z,70.43
